Hendron, Kentucky
Current Conditions -  °F | °C
As of 3:53 AM on Saturday 25 Oct 2014 (Local Time) from KPAH Reporting Station
Few Clouds Few Clouds  
Wind Chill: 56°   Ceiling: Unl
Heat Index: 56°   Visibility: 7mi
Dew Point: 52°   Wind: 7mph
Humidity: 87%   Direction: 180°S
Pressure: 30.02"   Gusts: NA
Location:  37.0331°N, 88.716°W
Report Text: KPAH 250853Z AUTO 18006KT 7SM FEW050 13/11 A3002 RMK AO2 SLP162 T01330111 58008
Loading
Personal Weather Stations






























Interactive Weather Map
Tropical Storm Tracking
New forecast layout! Learn more

10-Day Weather Forecast

Advertisements
Track Severe Weather on mobile